Time;durP1;ratioP1;P1;durP2;ratioP2;P2;SDS_P1;SDS_P2;PMS_P1;PMS_P2;Temp;Humidity;BMP_temperature;BMP_pressure;BME280_temperature;BME280_humidity;BME280_pressure;Samples;Min_cycle;Max_cycle;Signal;HPM_P1;HPM_P2
2023/10/28 00:02:05;;;;;;;7.00;1.13;;;;;;;;;;5030985;28;20211;-79
2023/10/28 00:04:33;;;;;;;5.97;1.03;;;;;;;;;;5030573;28;20232;-78
2023/10/28 00:07:00;;;;;;;4.83;1.20;;;;;;;;;;5031187;28;20595;-79
2023/10/28 00:09:27;;;;;;;8.00;1.07;;;;;;;;;;5031114;28;20203;-79
2023/10/28 00:11:54;;;;;;;4.50;1.00;;;;;;;;;;5031036;28;20664;-79
2023/10/28 00:14:23;;;;;;;6.90;1.17;;;;;;;;;;5030848;28;20752;-79
2023/10/28 00:16:51;;;;;;;9.20;1.53;;;;;;;;;;5031185;28;20200;-79
2023/10/28 00:19:19;;;;;;;8.73;1.43;;;;;;;;;;5031402;28;20196;-79
2023/10/28 00:21:46;;;;;;;6.77;1.10;;;;;;;;;;5013143;28;20197;-79
2023/10/28 00:24:13;;;;;;;6.33;1.40;;;;;;;;;;5030801;28;20332;-79
2023/10/28 00:26:41;;;;;;;5.57;1.13;;;;;;;;;;5031321;28;20197;-79
2023/10/28 00:29:08;;;;;;;7.70;1.30;;;;;;;;;;5034454;28;20240;-79
2023/10/28 00:31:35;;;;;;;7.50;1.47;;;;;;;;;;5034109;28;20266;-80
2023/10/28 00:34:05;;;;;;;7.47;1.10;;;;;;;;;;5034618;28;20220;-79
2023/10/28 00:36:32;;;;;;;6.97;1.57;;;;;;;;;;5034749;28;20282;-80
2023/10/28 00:38:59;;;;;;;6.93;1.30;;;;;;;;;;5034546;28;20552;-80
2023/10/28 00:41:26;;;;;;;6.87;1.60;;;;;;;;;;5034449;28;20664;-79
2023/10/28 00:43:54;;;;;;;7.23;1.50;;;;;;;;;;5034534;28;20227;-81
2023/10/28 00:46:22;;;;;;;10.30;1.67;;;;;;;;;;5034322;28;20326;-79
2023/10/28 00:48:49;;;;;;;8.10;1.90;;;;;;;;;;5034780;28;20222;-79
2023/10/28 00:51:19;;;;;;;8.70;1.50;;;;;;;;;;5034674;28;20232;-79
2023/10/28 00:53:46;;;;;;;7.27;1.43;;;;;;;;;;5034493;28;20201;-79
2023/10/28 00:56:13;;;;;;;9.27;1.93;;;;;;;;;;5034517;28;20228;-79
2023/10/28 00:58:40;;;;;;;6.53;1.80;;;;;;;;;;5034350;28;20283;-79
2023/10/28 01:01:10;;;;;;;11.87;2.10;;;;;;;;;;5033789;28;20205;-79
2023/10/28 01:03:40;;;;;;;10.60;1.73;;;;;;;;;;5034309;28;20563;-79
2023/10/28 01:06:09;;;;;;;13.20;2.00;;;;;;;;;;5034614;28;20197;-79
2023/10/28 01:08:37;;;;;;;10.33;1.97;;;;;;;;;;5034070;28;20199;-79
2023/10/28 01:11:05;;;;;;;11.47;1.77;;;;;;;;;;5034120;28;20398;-78
2023/10/28 01:13:32;;;;;;;12.00;1.97;;;;;;;;;;5034073;28;20224;-79
2023/10/28 01:16:00;;;;;;;12.30;1.80;;;;;;;;;;5033848;28;20227;-80
2023/10/28 01:18:27;;;;;;;11.13;1.67;;;;;;;;;;5034068;28;20200;-79
2023/10/28 01:20:54;;;;;;;10.27;1.70;;;;;;;;;;5033912;28;20307;-79
2023/10/28 01:23:23;;;;;;;11.93;1.67;;;;;;;;;;5033829;28;20287;-79
2023/10/28 01:25:50;;;;;;;8.73;1.60;;;;;;;;;;5033768;28;20268;-79
2023/10/28 01:28:18;;;;;;;10.93;1.90;;;;;;;;;;5033810;28;20711;-80
2023/10/28 01:30:45;;;;;;;12.53;1.63;;;;;;;;;;5033214;28;20616;-78
2023/10/28 01:33:12;;;;;;;14.67;1.90;;;;;;;;;;5034222;28;20283;-78
2023/10/28 01:35:39;;;;;;;12.50;1.60;;;;;;;;;;5033052;28;20200;-78
2023/10/28 01:38:07;;;;;;;10.53;1.73;;;;;;;;;;5034050;28;20239;-79
2023/10/28 01:40:35;;;;;;;10.53;1.53;;;;;;;;;;5032889;28;20236;-79
2023/10/28 01:43:03;;;;;;;7.57;1.63;;;;;;;;;;5032809;28;20283;-79
2023/10/28 01:45:30;;;;;;;10.30;2.30;;;;;;;;;;5033718;28;20282;-79
2023/10/28 01:47:58;;;;;;;8.10;1.67;;;;;;;;;;5033580;28;20287;-80
2023/10/28 01:50:25;;;;;;;9.07;1.60;;;;;;;;;;5033499;28;20295;-80
2023/10/28 01:52:52;;;;;;;7.83;1.70;;;;;;;;;;5033462;28;20292;-79
2023/10/28 01:55:20;;;;;;;12.07;1.40;;;;;;;;;;5033441;28;20201;-80
2023/10/28 01:57:48;;;;;;;9.40;2.10;;;;;;;;;;5033223;28;20200;-79
2023/10/28 02:00:16;;;;;;;11.53;1.60;;;;;;;;;;5032946;28;20243;-80
2023/10/28 02:02:44;;;;;;;9.80;1.93;;;;;;;;;;5033287;28;20292;-79
2023/10/28 02:05:12;;;;;;;14.07;2.07;;;;;;;;;;5033332;28;20255;-79
2023/10/28 02:07:40;;;;;;;10.17;1.87;;;;;;;;;;5033206;28;20216;-80
2023/10/28 02:10:07;;;;;;;7.30;1.67;;;;;;;;;;5032733;28;20194;-79
2023/10/28 02:12:35;;;;;;;12.43;1.50;;;;;;;;;;5032670;28;20204;-79
2023/10/28 02:15:04;;;;;;;9.87;2.07;;;;;;;;;;5033302;28;20630;-80
2023/10/28 02:17:32;;;;;;;13.97;2.10;;;;;;;;;;5031306;28;20201;-79
2023/10/28 02:19:59;;;;;;;9.20;1.53;;;;;;;;;;5021339;28;20876;-78
2023/10/28 02:22:26;;;;;;;13.83;1.70;;;;;;;;;;5032253;28;20254;-79
2023/10/28 02:24:53;;;;;;;13.43;2.13;;;;;;;;;;5033007;28;20260;-80
2023/10/28 02:27:20;;;;;;;6.97;1.37;;;;;;;;;;5032595;28;20292;-79
2023/10/28 02:29:48;;;;;;;7.20;1.53;;;;;;;;;;5032314;28;20283;-79
2023/10/28 02:32:17;;;;;;;15.77;2.03;;;;;;;;;;5032558;28;20295;-79
2023/10/28 02:34:44;;;;;;;8.83;1.63;;;;;;;;;;5032597;28;20286;-79
2023/10/28 02:37:14;;;;;;;7.23;1.43;;;;;;;;;;5032525;28;20243;-79
2023/10/28 02:39:41;;;;;;;7.60;1.40;;;;;;;;;;5032612;28;20193;-80
2023/10/28 02:42:09;;;;;;;10.83;2.07;;;;;;;;;;5032026;28;20200;-79
2023/10/28 02:44:36;;;;;;;11.13;1.70;;;;;;;;;;5032483;28;20307;-79
2023/10/28 02:47:03;;;;;;;8.73;1.70;;;;;;;;;;5032171;28;20558;-80
2023/10/28 02:49:32;;;;;;;16.73;1.93;;;;;;;;;;5032216;28;20668;-79
2023/10/28 02:51:59;;;;;;;7.93;1.80;;;;;;;;;;5031932;28;20271;-79
2023/10/28 02:54:26;;;;;;;9.87;2.20;;;;;;;;;;5032388;28;20224;-79
2023/10/28 02:56:53;;;;;;;7.23;1.70;;;;;;;;;;5031677;28;20224;-79
2023/10/28 02:59:21;;;;;;;10.47;2.03;;;;;;;;;;5032506;28;20295;-79
2023/10/28 03:01:48;;;;;;;6.90;1.90;;;;;;;;;;5031915;28;20208;-81
2023/10/28 03:04:15;;;;;;;7.60;1.63;;;;;;;;;;5031869;28;20228;-79
2023/10/28 03:06:45;;;;;;;11.87;2.17;;;;;;;;;;5032672;28;20196;-79
2023/10/28 03:09:12;;;;;;;10.37;2.10;;;;;;;;;;5031865;28;20688;-81
2023/10/28 03:11:39;;;;;;;7.77;1.67;;;;;;;;;;5031595;28;20258;-79
2023/10/28 03:14:06;;;;;;;11.33;2.07;;;;;;;;;;5031772;28;20231;-80
2023/10/28 03:16:34;;;;;;;10.13;1.87;;;;;;;;;;5032155;28;20258;-80
2023/10/28 03:19:02;;;;;;;11.77;1.70;;;;;;;;;;5031712;28;20199;-80
2023/10/28 03:21:29;;;;;;;11.57;1.90;;;;;;;;;;5031553;28;20720;-80
2023/10/28 03:23:57;;;;;;;10.27;1.70;;;;;;;;;;5031741;28;20810;-79
2023/10/28 03:26:24;;;;;;;11.60;2.17;;;;;;;;;;5030778;28;20290;-80
2023/10/28 03:28:52;;;;;;;10.07;2.03;;;;;;;;;;5032156;28;20621;-80
2023/10/28 03:31:19;;;;;;;10.80;2.20;;;;;;;;;;5031520;28;20259;-81
2023/10/28 03:33:46;;;;;;;8.70;1.93;;;;;;;;;;5031488;28;20703;-80
2023/10/28 03:36:13;;;;;;;12.87;2.03;;;;;;;;;;5031006;28;20629;-79
2023/10/28 03:38:40;;;;;;;9.77;2.10;;;;;;;;;;5031209;28;20666;-79
2023/10/28 03:41:09;;;;;;;12.80;2.37;;;;;;;;;;5030878;28;20278;-80
2023/10/28 03:43:37;;;;;;;10.03;1.90;;;;;;;;;;5031940;28;20855;-80
2023/10/28 03:46:04;;;;;;;10.10;2.07;;;;;;;;;;5046905;28;20248;-79
2023/10/28 03:48:32;;;;;;;11.87;1.90;;;;;;;;;;5031616;28;20207;-80
2023/10/28 03:51:00;;;;;;;7.87;1.60;;;;;;;;;;5031148;28;20226;-80
2023/10/28 03:53:28;;;;;;;9.63;1.80;;;;;;;;;;5030965;28;20227;-81
2023/10/28 03:55:55;;;;;;;11.33;2.00;;;;;;;;;;5031427;28;20335;-81
2023/10/28 03:58:23;;;;;;;12.83;2.10;;;;;;;;;;5031088;28;20299;-81
2023/10/28 04:00:53;;;;;;;14.43;2.87;;;;;;;;;;5031220;28;20220;-81
2023/10/28 04:03:20;;;;;;;12.67;2.30;;;;;;;;;;5033428;28;20215;-80
2023/10/28 04:05:47;;;;;;;14.73;2.20;;;;;;;;;;5035087;28;20228;-81
2023/10/28 04:08:14;;;;;;;8.37;1.73;;;;;;;;;;5035112;28;20204;-80
2023/10/28 04:10:42;;;;;;;13.43;2.20;;;;;;;;;;5035527;28;20594;-80
2023/10/28 04:13:09;;;;;;;11.13;1.90;;;;;;;;;;5035056;28;20258;-80
2023/10/28 04:15:39;;;;;;;12.57;2.10;;;;;;;;;;5035552;28;20215;-79
2023/10/28 04:18:06;;;;;;;8.33;2.30;;;;;;;;;;5035108;28;20200;-80
2023/10/28 04:20:34;;;;;;;11.27;2.13;;;;;;;;;;5035075;28;20280;-80
2023/10/28 04:23:02;;;;;;;12.30;2.30;;;;;;;;;;5035288;28;20284;-80
2023/10/28 04:25:29;;;;;;;16.10;2.37;;;;;;;;;;5035181;28;20305;-80
2023/10/28 04:27:56;;;;;;;11.87;2.30;;;;;;;;;;5034404;28;20564;-80
2023/10/28 04:30:24;;;;;;;14.63;2.40;;;;;;;;;;5034997;28;20652;-80
2023/10/28 04:32:54;;;;;;;13.37;2.40;;;;;;;;;;5034971;28;20642;-79
2023/10/28 04:35:23;;;;;;;12.70;2.60;;;;;;;;;;5034711;28;20258;-80
2023/10/28 04:37:50;;;;;;;14.13;2.40;;;;;;;;;;5034138;28;20578;-80
2023/10/28 04:40:17;;;;;;;13.10;2.70;;;;;;;;;;5034870;28;20944;-81
2023/10/28 04:42:47;;;;;;;17.07;2.67;;;;;;;;;;5035115;28;20213;-80
2023/10/28 04:45:14;;;;;;;16.07;2.43;;;;;;;;;;5035161;28;20228;-80
2023/10/28 04:47:41;;;;;;;14.63;2.43;;;;;;;;;;5034468;28;20242;-80
2023/10/28 04:50:10;;;;;;;15.87;2.90;;;;;;;;;;5034926;28;20287;-80
2023/10/28 04:52:37;;;;;;;17.70;2.70;;;;;;;;;;5034213;28;20204;-80
2023/10/28 04:55:05;;;;;;;11.90;2.50;;;;;;;;;;5034175;28;20232;-79
2023/10/28 04:57:32;;;;;;;15.87;2.90;;;;;;;;;;5034234;28;20299;-80
2023/10/28 04:59:59;;;;;;;19.80;3.07;;;;;;;;;;5034521;28;20200;-79
2023/10/28 05:02:27;;;;;;;18.13;3.00;;;;;;;;;;5034531;28;20244;-80
2023/10/28 05:04:54;;;;;;;16.63;2.47;;;;;;;;;;5033954;28;20203;-80
2023/10/28 05:07:24;;;;;;;14.73;3.33;;;;;;;;;;5033594;28;20300;-80
2023/10/28 05:09:51;;;;;;;16.67;2.60;;;;;;;;;;5034674;28;20200;-80
2023/10/28 05:12:19;;;;;;;13.37;2.43;;;;;;;;;;5034207;28;20287;-81
2023/10/28 05:14:46;;;;;;;19.07;3.07;;;;;;;;;;5034031;28;20203;-80
2023/10/28 05:17:15;;;;;;;15.77;2.93;;;;;;;;;;5034193;28;20296;-80
2023/10/28 05:19:42;;;;;;;16.63;3.07;;;;;;;;;;5033675;28;20660;-80
2023/10/28 05:22:09;;;;;;;18.17;3.33;;;;;;;;;;5033744;28;20211;-80
2023/10/28 05:24:37;;;;;;;18.57;2.97;;;;;;;;;;5033864;28;20284;-80
2023/10/28 05:27:05;;;;;;;17.40;3.10;;;;;;;;;;5033584;28;20315;-80
2023/10/28 05:29:32;;;;;;;18.80;2.90;;;;;;;;;;5034079;28;20323;-80
2023/10/28 05:31:59;;;;;;;15.70;3.13;;;;;;;;;;5033760;28;20287;-80
2023/10/28 05:34:26;;;;;;;13.27;2.70;;;;;;;;;;5033943;28;20228;-80
2023/10/28 05:36:53;;;;;;;16.33;2.60;;;;;;;;;;5033523;28;20203;-80
2023/10/28 05:39:21;;;;;;;19.73;3.20;;;;;;;;;;5034286;28;20250;-80
2023/10/28 05:41:50;;;;;;;13.80;2.77;;;;;;;;;;5033620;28;20661;-80
2023/10/28 05:44:17;;;;;;;16.83;2.97;;;;;;;;;;5033496;28;20278;-81
2023/10/28 05:46:45;;;;;;;16.17;3.03;;;;;;;;;;5033851;28;20263;-80
2023/10/28 05:49:12;;;;;;;13.93;2.70;;;;;;;;;;5033236;28;20591;-81
2023/10/28 05:51:40;;;;;;;12.20;2.57;;;;;;;;;;5032782;28;20197;-81
2023/10/28 05:54:07;;;;;;;17.80;2.93;;;;;;;;;;5033478;28;20632;-80
2023/10/28 05:56:35;;;;;;;17.13;3.13;;;;;;;;;;5033300;28;20197;-80
2023/10/28 05:59:03;;;;;;;13.37;2.60;;;;;;;;;;5033526;28;20188;-80
2023/10/28 06:01:31;;;;;;;17.90;3.70;;;;;;;;;;5033207;28;20650;-80
2023/10/28 06:03:59;;;;;;;19.67;3.33;;;;;;;;;;5033299;28;20196;-80
2023/10/28 06:06:27;;;;;;;16.10;3.00;;;;;;;;;;5033269;28;20743;-80
2023/10/28 06:08:54;;;;;;;18.00;3.13;;;;;;;;;;5033133;28;20192;-81
2023/10/28 06:11:22;;;;;;;15.57;3.70;;;;;;;;;;5033241;28;20287;-80
2023/10/28 06:13:49;;;;;;;22.07;4.00;;;;;;;;;;5033233;28;20296;-80
2023/10/28 06:16:18;;;;;;;20.60;3.27;;;;;;;;;;5032896;28;20211;-81
2023/10/28 06:18:46;;;;;;;16.97;3.13;;;;;;;;;;5032924;28;20266;-80
2023/10/28 06:21:14;;;;;;;19.07;3.70;;;;;;;;;;5032530;28;20200;-80
2023/10/28 06:23:41;;;;;;;21.97;3.40;;;;;;;;;;5032770;28;20560;-80
2023/10/28 06:26:10;;;;;;;21.03;3.03;;;;;;;;;;5031998;28;20235;-79
2023/10/28 06:28:37;;;;;;;17.20;3.07;;;;;;;;;;5032587;28;20196;-80
2023/10/28 06:31:05;;;;;;;19.03;3.17;;;;;;;;;;5032173;28;20232;-80
2023/10/28 06:33:33;;;;;;;20.33;3.00;;;;;;;;;;5032033;28;20206;-81
2023/10/28 06:36:00;;;;;;;20.97;3.67;;;;;;;;;;5032959;28;20228;-81
2023/10/28 06:38:29;;;;;;;22.43;3.23;;;;;;;;;;5032410;28;20299;-81
2023/10/28 06:40:57;;;;;;;23.07;3.90;;;;;;;;;;5032946;28;20205;-80
2023/10/28 06:43:24;;;;;;;22.73;3.10;;;;;;;;;;5032332;28;20672;-80
2023/10/28 06:45:51;;;;;;;22.10;3.63;;;;;;;;;;5032240;28;20221;-81
2023/10/28 06:48:19;;;;;;;18.17;3.20;;;;;;;;;;5032125;28;20295;-80
2023/10/28 06:50:48;;;;;;;20.87;3.60;;;;;;;;;;5032047;28;20681;-81
2023/10/28 06:53:15;;;;;;;16.57;3.40;;;;;;;;;;5032581;28;20579;-81
2023/10/28 06:55:42;;;;;;;20.00;3.40;;;;;;;;;;5032375;28;20205;-81
2023/10/28 06:58:10;;;;;;;15.37;3.30;;;;;;;;;;5032079;28;20291;-80
2023/10/28 07:00:37;;;;;;;16.77;3.37;;;;;;;;;;5032068;28;20220;-80
2023/10/28 07:03:04;;;;;;;21.23;3.43;;;;;;;;;;5031404;28;20232;-81
2023/10/28 07:05:32;;;;;;;22.13;3.73;;;;;;;;;;5031795;28;20287;-81
2023/10/28 07:08:00;;;;;;;19.87;3.17;;;;;;;;;;5047253;28;20259;-80
2023/10/28 07:10:28;;;;;;;19.67;3.73;;;;;;;;;;5031715;28;20291;-80
2023/10/28 07:12:55;;;;;;;22.10;3.70;;;;;;;;;;5031881;28;20196;-80
2023/10/28 07:15:22;;;;;;;18.07;3.40;;;;;;;;;;5031672;28;20247;-81
2023/10/28 07:17:49;;;;;;;16.33;2.87;;;;;;;;;;5031367;28;20196;-80
2023/10/28 07:20:18;;;;;;;19.00;3.83;;;;;;;;;;5031830;28;20287;-80
2023/10/28 07:22:46;;;;;;;18.63;3.03;;;;;;;;;;5032030;28;20236;-78
2023/10/28 07:25:14;;;;;;;13.03;2.90;;;;;;;;;;5031831;28;20287;-79
2023/10/28 07:27:42;;;;;;;16.83;3.30;;;;;;;;;;5031570;28;20660;-79
2023/10/28 07:30:11;;;;;;;13.97;2.67;;;;;;;;;;5031850;28;20644;-79
2023/10/28 07:32:38;;;;;;;20.83;3.33;;;;;;;;;;5031539;28;20196;-78
2023/10/28 07:35:06;;;;;;;20.13;3.20;;;;;;;;;;5031722;28;20270;-79
2023/10/28 07:37:34;;;;;;;13.60;3.27;;;;;;;;;;5031287;28;20612;-79
2023/10/28 07:40:01;;;;;;;17.10;2.53;;;;;;;;;;5031954;28;20200;-78
2023/10/28 07:42:30;;;;;;;11.27;2.70;;;;;;;;;;5031470;28;20196;-79
2023/10/28 07:44:57;;;;;;;13.77;2.90;;;;;;;;;;5031032;28;20232;-78
2023/10/28 07:47:24;;;;;;;12.87;2.70;;;;;;;;;;5030747;28;20323;-78
2023/10/28 07:49:52;;;;;;;11.60;3.37;;;;;;;;;;5031567;28;20738;-79
2023/10/28 07:52:20;;;;;;;12.57;3.13;;;;;;;;;;5031279;28;20241;-79
2023/10/28 07:54:47;;;;;;;16.97;3.17;;;;;;;;;;5031763;28;20204;-78
2023/10/28 07:57:14;;;;;;;12.07;2.87;;;;;;;;;;5031417;28;20199;-80
2023/10/28 07:59:43;;;;;;;12.10;2.40;;;;;;;;;;5031158;28;20207;-80
2023/10/28 08:02:11;;;;;;;12.00;2.80;;;;;;;;;;5030783;28;20295;-80
2023/10/28 08:04:38;;;;;;;10.53;2.40;;;;;;;;;;5031485;28;20684;-79
2023/10/28 08:07:06;;;;;;;11.97;2.40;;;;;;;;;;5030915;28;20236;-80
2023/10/28 08:09:33;;;;;;;9.47;2.60;;;;;;;;;;5031431;28;20197;-80
2023/10/28 08:12:00;;;;;;;15.23;2.37;;;;;;;;;;5031340;28;20239;-80
2023/10/28 08:14:28;;;;;;;13.70;2.00;;;;;;;;;;4681101;28;10000391;-79
2023/10/28 08:16:57;;;;;;;16.70;2.87;;;;;;;;;;5027918;28;20204;-79
2023/10/28 08:19:25;;;;;;;15.23;3.00;;;;;;;;;;5028236;28;20202;-77
2023/10/28 08:21:52;;;;;;;10.60;2.30;;;;;;;;;;5028517;28;20197;-78
2023/10/28 08:24:22;;;;;;;10.10;2.70;;;;;;;;;;5027711;28;20291;-78
2023/10/28 08:26:49;;;;;;;9.00;1.87;;;;;;;;;;5027201;28;20224;-78
2023/10/28 08:29:16;;;;;;;11.93;2.47;;;;;;;;;;5026923;28;20200;-77
2023/10/28 08:31:48;;;;;;;10.80;2.23;;;;;;;;;;5027944;28;20311;-78
2023/10/28 08:34:16;;;;;;;10.97;2.07;;;;;;;;;;5027606;28;20299;-79
2023/10/28 08:36:43;;;;;;;10.67;2.27;;;;;;;;;;5027668;28;20740;-78
2023/10/28 08:39:13;;;;;;;14.50;2.70;;;;;;;;;;5026893;28;20292;-78
2023/10/28 08:41:42;;;;;;;12.67;2.50;;;;;;;;;;5027415;28;20926;-79
2023/10/28 08:44:09;;;;;;;11.07;2.00;;;;;;;;;;5027159;28;20211;-78
2023/10/28 08:46:38;;;;;;;14.90;2.57;;;;;;;;;;5027408;28;20228;-79
2023/10/28 08:49:05;;;;;;;14.60;2.27;;;;;;;;;;5029606;28;20207;-79
2023/10/28 08:51:35;;;;;;;8.50;2.23;;;;;;;;;;5030479;28;20203;-80
2023/10/28 08:54:04;;;;;;;12.00;2.57;;;;;;;;;;5031682;28;20208;-78
2023/10/28 08:56:33;;;;;;;12.53;2.60;;;;;;;;;;5031246;28;20307;-78
2023/10/28 08:59:00;;;;;;;13.60;2.67;;;;;;;;;;5030665;28;20613;-79
2023/10/28 09:01:28;;;;;;;18.87;2.63;;;;;;;;;;5031132;28;20294;-78
2023/10/28 09:03:58;;;;;;;12.57;2.30;;;;;;;;;;5030945;28;20262;-78
2023/10/28 09:06:25;;;;;;;11.37;2.13;;;;;;;;;;5030988;28;20684;-78
2023/10/28 09:08:55;;;;;;;11.43;2.60;;;;;;;;;;5030860;28;20903;-79
2023/10/28 09:11:23;;;;;;;12.27;2.47;;;;;;;;;;5031516;28;20228;-79
2023/10/28 09:13:51;;;;;;;13.60;2.50;;;;;;;;;;5030229;28;20296;-79
2023/10/28 09:16:18;;;;;;;10.93;2.30;;;;;;;;;;5031157;28;20338;-79
2023/10/28 09:18:49;;;;;;;10.60;2.70;;;;;;;;;;5030597;28;20224;-78
2023/10/28 09:21:16;;;;;;;12.20;2.10;;;;;;;;;;5030954;28;20211;-78
2023/10/28 09:23:43;;;;;;;12.17;2.50;;;;;;;;;;5030931;28;20227;-79
2023/10/28 09:26:11;;;;;;;14.60;2.57;;;;;;;;;;5030393;28;20560;-79
2023/10/28 09:28:44;;;;;;;15.80;2.13;;;;;;;;;;5030347;28;20196;-77
2023/10/28 09:31:11;;;;;;;7.97;2.03;;;;;;;;;;5030479;28;20232;-76
2023/10/28 09:33:38;;;;;;;11.13;1.77;;;;;;;;;;5031252;28;20290;-77
2023/10/28 09:36:06;;;;;;;8.23;1.90;;;;;;;;;;5033673;28;20282;-78
2023/10/28 09:38:35;;;;;;;10.40;2.20;;;;;;;;;;5047220;28;20290;-78
2023/10/28 09:41:03;;;;;;;9.53;2.20;;;;;;;;;;5033514;28;20242;-78
2023/10/28 09:43:32;;;;;;;8.80;2.33;;;;;;;;;;5033245;28;20223;-78
2023/10/28 09:46:00;;;;;;;9.17;2.83;;;;;;;;;;5033439;28;20691;-77
2023/10/28 09:48:31;;;;;;;11.80;2.97;;;;;;;;;;5033218;28;20220;-78
2023/10/28 09:50:59;;;;;;;12.33;2.50;;;;;;;;;;5033517;28;20209;-78
2023/10/28 09:53:34;;;;;;;11.93;2.87;;;;;;;;;;5033214;28;20683;-78
2023/10/28 09:56:03;;;;;;;16.25;3.65;;;;;;;;;;5051733;28;20679;-78
2023/10/28 09:58:33;;;;;;;12.88;3.22;;;;;;;;;;5032202;28;20246;-79
2023/10/28 10:01:05;;;;;;;9.65;1.92;;;;;;;;;;5032078;28;20661;-77
2023/10/28 10:03:40;;;;;;;11.05;2.40;;;;;;;;;;5032322;28;20284;-78
2023/10/28 10:06:08;;;;;;;10.75;2.35;;;;;;;;;;5032667;28;20214;-77
2023/10/28 10:08:36;;;;;;;13.43;3.42;;;;;;;;;;5032871;28;20236;-76
2023/10/28 10:11:07;;;;;;;9.00;3.00;;;;;;;;;;5033211;28;20206;-76
2023/10/28 10:13:44;;;;;;;14.37;3.17;;;;;;;;;;5030548;28;20226;-76
2023/10/28 10:16:16;;;;;;;11.87;3.00;;;;;;;;;;5023455;28;20200;-77
2023/10/28 10:18:47;;;;;;;8.80;2.00;;;;;;;;;;5029934;28;20282;-76
2023/10/28 10:21:18;;;;;;;9.80;2.50;;;;;;;;;;5032503;28;20239;-77
2023/10/28 10:23:46;;;;;;;10.93;2.25;;;;;;;;;;5031951;28;20205;-77
2023/10/28 10:26:23;;;;;;;9.73;2.15;;;;;;;;;;5032061;28;20284;-76
2023/10/28 10:28:54;;;;;;;11.17;2.57;;;;;;;;;;5033284;28;20310;-75
2023/10/28 10:31:23;;;;;;;11.87;2.00;;;;;;;;;;5029178;28;20240;-77
2023/10/28 10:34:00;;;;;;;10.57;2.37;;;;;;;;;;5031874;28;20224;-77
2023/10/28 10:36:30;;;;;;;12.43;1.90;;;;;;;;;;5031878;28;20196;-78
2023/10/28 10:38:59;;;;;;;10.17;2.10;;;;;;;;;;5032175;28;20680;-77
2023/10/28 10:41:28;;;;;;;9.63;1.90;;;;;;;;;;5033065;28;20203;-76
2023/10/28 10:43:56;;;;;;;10.27;2.17;;;;;;;;;;5032017;28;20196;-77
2023/10/28 10:46:24;;;;;;;12.93;1.92;;;;;;;;;;5029638;28;20240;-76
2023/10/28 10:48:51;;;;;;;9.88;1.90;;;;;;;;;;5032222;28;20763;-78
2023/10/28 10:51:19;;;;;;;10.18;2.15;;;;;;;;;;5032175;28;20283;-78
2023/10/28 10:53:47;;;;;;;9.73;2.00;;;;;;;;;;5031878;28;20661;-77
2023/10/28 10:56:20;;;;;;;13.37;2.47;;;;;;;;;;5031067;28;20254;-78
2023/10/28 10:58:47;;;;;;;10.20;1.77;;;;;;;;;;5031778;28;20780;-78
2023/10/28 11:01:16;;;;;;;10.93;2.03;;;;;;;;;;5019799;28;20215;-77
2023/10/28 11:03:44;;;;;;;8.82;2.42;;;;;;;;;;5021116;28;20215;-78
2023/10/28 11:06:12;;;;;;;7.47;2.07;;;;;;;;;;5027017;28;20818;-77
2023/10/28 11:08:39;;;;;;;14.73;3.00;;;;;;;;;;5031870;28;20235;-77
2023/10/28 11:11:07;;;;;;;6.73;2.20;;;;;;;;;;5040259;28;20287;-78
2023/10/28 11:13:34;;;;;;;13.40;2.50;;;;;;;;;;5033446;28;20665;-77
2023/10/28 11:16:01;;;;;;;9.73;2.20;;;;;;;;;;5031542;28;20631;-78
2023/10/28 11:18:29;;;;;;;12.90;2.47;;;;;;;;;;5047073;28;20645;-78
2023/10/28 11:20:57;;;;;;;11.07;2.33;;;;;;;;;;5029144;28;20292;-78
2023/10/28 11:23:26;;;;;;;11.60;2.30;;;;;;;;;;5027089;28;20204;-79
2023/10/28 11:25:53;;;;;;;11.60;2.40;;;;;;;;;;5027175;28;20640;-78
2023/10/28 11:28:22;;;;;;;13.63;2.93;;;;;;;;;;5027095;28;20228;-78
2023/10/28 11:30:50;;;;;;;9.07;2.30;;;;;;;;;;5032749;28;20561;-76
2023/10/28 11:33:17;;;;;;;10.13;1.87;;;;;;;;;;5046422;28;20326;-78
2023/10/28 11:35:50;;;;;;;11.90;2.40;;;;;;;;;;5027464;28;20228;-78
2023/10/28 11:38:18;;;;;;;11.03;2.60;;;;;;;;;;5006470;28;20306;-78
2023/10/28 11:40:45;;;;;;;13.13;2.30;;;;;;;;;;5022764;28;20298;-78
2023/10/28 11:43:12;;;;;;;12.90;2.50;;;;;;;;;;5026430;28;20235;-78
2023/10/28 11:45:39;;;;;;;6.47;2.33;;;;;;;;;;5025890;28;20204;-79
2023/10/28 11:48:08;;;;;;;10.10;2.23;;;;;;;;;;5041933;28;20311;-78
2023/10/28 11:50:35;;;;;;;14.83;2.00;;;;;;;;;;5026661;28;20196;-77
2023/10/28 11:53:04;;;;;;;9.17;2.00;;;;;;;;;;5024178;28;20231;-77
2023/10/28 11:55:31;;;;;;;9.13;2.17;;;;;;;;;;5026477;28;20232;-77
2023/10/28 11:57:58;;;;;;;5.37;1.73;;;;;;;;;;5029186;28;20210;-77
2023/10/28 12:00:26;;;;;;;9.27;1.90;;;;;;;;;;5045479;28;20222;-78
2023/10/28 12:02:53;;;;;;;9.40;1.87;;;;;;;;;;5038631;28;20200;-77
2023/10/28 12:05:20;;;;;;;7.40;1.70;;;;;;;;;;5025376;28;20254;-78
2023/10/28 12:07:48;;;;;;;9.17;2.20;;;;;;;;;;5027064;28;20319;-78
2023/10/28 12:10:17;;;;;;;6.90;1.60;;;;;;;;;;5046019;28;20673;-76
2023/10/28 12:12:44;;;;;;;10.33;2.13;;;;;;;;;;5033061;28;20284;-76
2023/10/28 12:15:11;;;;;;;5.70;1.83;;;;;;;;;;5028784;28;20234;-78
2023/10/28 12:17:38;;;;;;;8.07;2.00;;;;;;;;;;5029308;28;20208;-78
2023/10/28 12:20:07;;;;;;;7.40;2.13;;;;;;;;;;5029534;28;20239;-76
2023/10/28 12:22:35;;;;;;;10.00;2.67;;;;;;;;;;5031580;28;20223;-80
2023/10/28 12:25:02;;;;;;;12.03;3.47;;;;;;;;;;5034197;28;20307;-78
2023/10/28 12:27:32;;;;;;;12.30;3.27;;;;;;;;;;5035187;28;20634;-78
2023/10/28 12:30:00;;;;;;;8.63;2.07;;;;;;;;;;5034804;28;20602;-79
2023/10/28 12:32:27;;;;;;;11.23;2.13;;;;;;;;;;5035072;28;20193;-79
2023/10/28 12:34:54;;;;;;;8.53;2.07;;;;;;;;;;5036943;28;20290;-78
2023/10/28 12:37:21;;;;;;;10.43;3.03;;;;;;;;;;5043394;28;20292;-77
2023/10/28 12:39:49;;;;;;;10.83;2.63;;;;;;;;;;5043948;28;20592;-78
2023/10/28 12:42:16;;;;;;;11.13;2.53;;;;;;;;;;5049707;28;20641;-78
2023/10/28 12:44:45;;;;;;;11.75;2.47;;;;;;;;;;5041024;28;20211;-77
2023/10/28 12:47:12;;;;;;;13.25;2.30;;;;;;;;;;5034456;28;20230;-77
2023/10/28 12:49:39;;;;;;;12.18;1.90;;;;;;;;;;5035043;28;20255;-77
2023/10/28 12:52:07;;;;;;;7.50;2.08;;;;;;;;;;5039223;28;20226;-76
2023/10/28 12:54:34;;;;;;;10.45;2.30;;;;;;;;;;5054456;28;20652;-79
2023/10/28 12:57:01;;;;;;;11.73;1.60;;;;;;;;;;5054625;28;20199;-78
2023/10/28 12:59:28;;;;;;;11.27;2.60;;;;;;;;;;5048637;28;20572;-78
2023/10/28 13:01:57;;;;;;;10.27;2.20;;;;;;;;;;5034945;28;20196;-79
2023/10/28 13:04:25;;;;;;;11.15;2.28;;;;;;;;;;5034318;28;20300;-78
2023/10/28 13:06:52;;;;;;;9.48;2.45;;;;;;;;;;5034394;28;20201;-78
2023/10/28 13:09:20;;;;;;;13.43;3.17;;;;;;;;;;5040170;28;20311;-78
2023/10/28 13:11:48;;;;;;;13.15;3.40;;;;;;;;;;5054239;28;20291;-78
2023/10/28 13:14:18;;;;;;;15.82;5.10;;;;;;;;;;5054128;28;20287;-76
2023/10/28 13:16:45;;;;;;;15.85;4.00;;;;;;;;;;5046811;28;20316;-76
2023/10/28 13:19:14;;;;;;;13.80;2.40;;;;;;;;;;5033704;28;20228;-78
2023/10/28 13:21:41;;;;;;;14.20;3.20;;;;;;;;;;5034193;28;20614;-78
2023/10/28 13:24:09;;;;;;;10.73;2.30;;;;;;;;;;5034371;28;20200;-78
2023/10/28 13:26:36;;;;;;;11.67;2.50;;;;;;;;;;5033941;28;20291;-77
2023/10/28 13:29:03;;;;;;;11.18;2.63;;;;;;;;;;5033819;28;20826;-76
2023/10/28 13:31:30;;;;;;;17.35;2.80;;;;;;;;;;5034416;28;20239;-79
2023/10/28 13:33:57;;;;;;;14.82;2.58;;;;;;;;;;5033269;28;20221;-78
2023/10/28 13:36:26;;;;;;;14.13;2.67;;;;;;;;;;5033832;28;20287;-78
2023/10/28 13:38:53;;;;;;;14.27;2.70;;;;;;;;;;5033821;28;20707;-78
2023/10/28 13:41:20;;;;;;;13.55;2.33;;;;;;;;;;5033764;28;20199;-77
2023/10/28 13:43:48;;;;;;;10.93;2.30;;;;;;;;;;5042466;28;20200;-79
2023/10/28 13:46:16;;;;;;;16.80;2.80;;;;;;;;;;5053519;28;20215;-78
2023/10/28 13:48:43;;;;;;;7.20;1.88;;;;;;;;;;5048730;28;20678;-77
2023/10/28 13:51:10;;;;;;;13.13;2.38;;;;;;;;;;5033630;28;20201;-77
2023/10/28 13:53:39;;;;;;;11.00;2.35;;;;;;;;;;5033502;28;20286;-78
2023/10/28 13:56:06;;;;;;;12.75;2.15;;;;;;;;;;5033396;28;20216;-78
2023/10/28 13:58:33;;;;;;;11.50;2.00;;;;;;;;;;5033450;28;20691;-79
2023/10/28 14:01:04;;;;;;;9.85;2.08;;;;;;;;;;5033477;28;20275;-78
2023/10/28 14:03:32;;;;;;;12.68;2.67;;;;;;;;;;5033431;28;20201;-78
2023/10/28 14:05:59;;;;;;;8.20;2.17;;;;;;;;;;5033193;28;20284;-80
2023/10/28 14:08:26;;;;;;;11.55;2.03;;;;;;;;;;5033302;28;20271;-78
2023/10/28 14:10:54;;;;;;;12.77;1.93;;;;;;;;;;5033171;28;20224;-79
2023/10/28 14:13:22;;;;;;;11.20;1.80;;;;;;;;;;5032474;28;20696;-78
2023/10/28 14:15:49;;;;;;;9.97;1.87;;;;;;;;;;5031888;28;20299;-78
2023/10/28 14:18:18;;;;;;;9.83;2.03;;;;;;;;;;5031524;28;20197;-76
2023/10/28 14:20:45;;;;;;;7.50;1.70;;;;;;;;;;5031413;28;20204;-78
2023/10/28 14:23:12;;;;;;;6.22;1.77;;;;;;;;;;5031460;28;20231;-78
2023/10/28 14:25:40;;;;;;;9.87;1.70;;;;;;;;;;5030879;28;20292;-78
2023/10/28 14:28:08;;;;;;;9.10;2.15;;;;;;;;;;5029727;28;20585;-77
2023/10/28 14:30:36;;;;;;;9.63;1.93;;;;;;;;;;5029620;28;20320;-78
2023/10/28 14:33:04;;;;;;;8.37;1.47;;;;;;;;;;5032008;28;20201;-76
2023/10/28 14:35:31;;;;;;;11.97;2.20;;;;;;;;;;5033188;28;20208;-77
2023/10/28 14:37:59;;;;;;;7.38;1.42;;;;;;;;;;5024409;28;20205;-79